Time;durP1;ratioP1;P1;durP2;ratioP2;P2;SDS_P1;SDS_P2;PMS_P1;PMS_P2;Temp;Humidity;BMP_temperature;BMP_pressure;BME280_temperature;BME280_humidity;BME280_pressure;Samples;Min_cycle;Max_cycle;Signal;HPM_P1;HPM_P2
2022/03/20 00:12:10;;;;;;;74.00;28.10;;;;;;;-0.62;42.17;101134.53;432511;1270;108859;-40
2022/03/20 00:22:18;;;;;;;64.80;29.30;;;;;;;-0.69;42.47;101139.64;432698;1270;99179;-42
2022/03/20 00:32:25;;;;;;;68.80;30.20;;;;;;;-0.76;42.62;101136.42;432584;1270;108893;-40
2022/03/20 00:42:32;;;;;;;61.70;26.70;;;;;;;-0.91;42.65;101143.97;432589;1268;99286;-40
2022/03/20 00:52:39;;;;;;;64.10;27.30;;;;;;;-1.05;43.07;101142.90;432356;1271;112492;-39
2022/03/20 01:02:47;;;;;;;69.00;28.60;;;;;;;-1.17;43.23;101137.59;432507;1270;108821;-42
2022/03/20 01:12:56;;;;;;;71.00;29.40;;;;;;;-1.27;43.57;101133.71;432461;1270;99270;-43
2022/03/20 01:33:09;;;;;;;57.50;26.70;;;;;;;-1.42;43.87;101130.29;432387;1270;99379;-43
2022/03/20 01:43:18;;;;;;;60.70;27.70;;;;;;;-1.52;44.01;101121.54;432475;1270;112384;-41
2022/03/20 01:53:26;;;;;;;64.50;27.00;;;;;;;-1.62;44.03;101116.59;432450;1270;108865;-44
2022/03/20 02:03:32;;;;;;;56.60;23.80;;;;;;;-1.64;44.31;101112.39;432642;1270;98118;-42
2022/03/20 02:13:40;;;;;;;61.60;26.50;;;;;;;-1.69;44.41;101101.09;432695;1270;108786;-40
2022/03/20 02:23:46;;;;;;;54.50;24.80;;;;;;;-1.73;44.56;101096.48;432440;1270;99285;-41
2022/03/20 02:34:10;;;;;;;63.20;25.10;;;;;;;-1.79;44.62;101097.23;432802;1260;110838;31
2022/03/20 02:44:17;;;;;;;61.70;27.00;;;;;;;-1.91;44.90;101094.12;432494;1270;108710;-42
2022/03/20 02:54:24;;;;;;;60.00;26.90;;;;;;;-2.01;45.18;101087.98;432864;1271;99255;-40
2022/03/20 03:04:31;;;;;;;58.40;27.70;;;;;;;-2.06;45.26;101083.96;432626;1271;108784;-39
2022/03/20 03:25:03;;;;;;;61.90;24.50;;;;;;;-2.05;45.65;101088.58;432406;1271;112552;-39
2022/03/20 03:45:39;;;;;;;56.40;25.00;;;;;;;-2.08;45.78;101091.67;432560;1271;99949;-41
2022/03/20 03:55:46;;;;;;;54.00;25.10;;;;;;;-2.16;45.87;101091.57;432598;1271;108788;-40
2022/03/20 04:05:53;;;;;;;66.10;28.00;;;;;;;-2.31;46.03;101098.17;432491;1271;99149;-42
2022/03/20 04:16:00;;;;;;;60.50;25.70;;;;;;;-2.71;46.43;101097.30;432434;1271;112391;-40
2022/03/20 04:26:07;;;;;;;56.20;25.90;;;;;;;-3.13;46.68;101103.02;432421;1271;108923;-40
2022/03/20 04:36:14;;;;;;;66.30;28.20;;;;;;;-3.42;47.21;101111.50;432612;1271;99242;-40
2022/03/20 04:46:22;;;;;;;58.50;26.30;;;;;;;-3.41;47.42;101112.97;432689;1271;108837;-41
2022/03/20 05:06:55;;;;;;;65.30;29.40;;;;;;;-2.95;47.75;101123.99;432587;1271;112430;-40
2022/03/20 05:17:03;;;;;;;59.70;27.40;;;;;;;-2.82;47.80;101121.72;432665;1271;108643;-40
2022/03/20 05:27:11;;;;;;;62.30;25.80;;;;;;;-2.60;48.00;101136.03;432663;1271;99361;-40
2022/03/20 05:37:18;;;;;;;59.30;27.50;;;;;;;-1.62;47.81;101136.85;432538;1271;109014;-42
2022/03/20 05:47:26;;;;;;;72.30;33.00;;;;;;;-0.67;47.36;101136.41;432455;1271;99261;-40
2022/03/20 06:07:59;;;;;;;64.80;31.20;;;;;;;1.28;45.92;101152.14;432552;1271;108296;-40
2022/03/20 06:18:07;;;;;;;76.30;35.40;;;;;;;1.88;45.17;101156.31;432423;1270;98382;-40
2022/03/20 06:28:14;;;;;;;69.20;32.40;;;;;;;2.37;44.17;101162.97;432485;1270;111462;-44
2022/03/20 06:38:22;;;;;;;70.10;31.60;;;;;;;2.75;43.43;101163.05;432597;1271;108817;-41
2022/03/20 06:48:29;;;;;;;70.80;31.90;;;;;;;3.09;42.84;101175.18;432430;1271;99286;-44
2022/03/20 06:58:36;;;;;;;55.30;29.40;;;;;;;3.60;42.32;101178.66;432445;1271;112314;-41
2022/03/20 07:08:44;;;;;;;60.60;30.00;;;;;;;4.01;41.45;101181.23;432642;1271;108865;-41
2022/03/20 07:18:51;;;;;;;56.80;29.90;;;;;;;4.23;40.58;101178.92;432300;1271;98017;-40
2022/03/20 07:39:23;;;;;;;57.90;28.20;;;;;;;4.53;39.83;101181.46;432437;1271;110678;-40
2022/03/20 07:49:31;;;;;;;53.50;26.00;;;;;;;4.41;39.30;101180.95;432386;1271;98955;-41
2022/03/20 07:59:37;;;;;;;43.70;23.80;;;;;;;4.61;38.83;101174.66;432482;1271;111432;-43
2022/03/20 08:09:44;;;;;;;50.50;24.90;;;;;;;5.23;37.84;101182.31;432459;1271;108955;-43
2022/03/20 08:19:52;;;;;;;44.30;23.30;;;;;;;6.03;37.33;101181.02;432597;1271;98026;-40
2022/03/20 08:29:59;;;;;;;38.40;21.60;;;;;;;6.62;36.44;101179.97;432429;1271;108428;-41
2022/03/20 08:40:05;;;;;;;38.30;21.40;;;;;;;6.99;35.83;101183.21;432568;1271;98027;-40
2022/03/20 08:50:14;;;;;;;44.20;23.00;;;;;;;7.11;35.16;101177.87;432686;1270;111207;-41
2022/03/20 09:00:25;;;;;;;38.10;21.30;;;;;;;7.13;34.39;101181.17;432584;1271;108764;-41
2022/03/20 09:10:31;;;;;;;30.80;18.30;;;;;;;7.19;34.00;101184.25;432460;1271;462013;-41
2022/03/20 09:20:42;;;;;;;40.90;20.70;;;;;;;7.75;33.55;101177.66;432695;1271;112050;-42
2022/03/20 09:40:59;;;;;;;28.60;16.40;;;;;;;8.44;32.20;101167.70;432620;1271;99328;-42
2022/03/20 09:51:09;;;;;;;32.20;17.30;;;;;;;8.66;31.53;101163.52;432509;1271;113773;-41
2022/03/20 10:01:17;;;;;;;26.10;15.60;;;;;;;8.77;30.80;101163.69;432635;1271;109486;-41
2022/03/20 10:11:25;;;;;;;24.80;15.40;;;;;;;8.82;30.61;101167.89;432528;1271;99263;-44
2022/03/20 10:21:52;;;;;;;23.80;14.80;;;;;;;8.99;30.36;101164.86;432538;1271;112289;-41
2022/03/20 10:42:07;;;;;;;33.60;18.80;;;;;;;9.29;29.85;101157.73;432656;1271;99290;-42
2022/03/20 10:52:22;;;;;;;25.50;14.60;;;;;;;9.46;29.78;101150.71;432269;1273;112237;-41
2022/03/20 11:02:30;;;;;;;29.40;16.20;;;;;;;9.85;29.83;101143.00;432452;1271;108737;-43
2022/03/20 11:12:38;;;;;;;27.00;14.90;;;;;;;10.07;29.89;101130.42;432623;1271;99285;-42
2022/03/20 11:32:50;;;;;;;18.10;11.90;;;;;;;9.99;28.89;101111.34;432672;1271;108034;-40
2022/03/20 11:43:19;;;;;;;23.30;13.30;;;;;;;10.21;29.07;101101.79;432735;1271;99267;-41
2022/03/20 11:53:27;;;;;;;18.30;10.90;;;;;;;10.45;28.67;101095.23;432684;1271;109089;-40
2022/03/20 12:13:59;;;;;;;17.40;10.30;;;;;;;10.58;27.04;101064.44;432495;1271;112376;-41
2022/03/20 12:24:26;;;;;;;21.10;12.50;;;;;;;10.63;26.84;101051.78;432600;1270;107847;-41
2022/03/20 12:34:33;;;;;;;23.00;11.90;;;;;;;10.71;26.65;101040.52;432596;1270;99372;-41
2022/03/20 12:44:45;;;;;;;14.50;8.80;;;;;;;10.75;26.62;101031.40;432561;1270;108452;-41
2022/03/20 12:54:54;;;;;;;18.00;10.70;;;;;;;10.72;25.92;101019.20;432522;1270;99267;-41
2022/03/20 13:05:08;;;;;;;15.80;9.60;;;;;;;10.46;25.83;101012.15;432372;1270;112557;-40
2022/03/20 13:15:21;;;;;;;15.90;9.30;;;;;;;10.51;25.91;101003.23;432530;1268;109565;-42
2022/03/20 13:25:30;;;;;;;12.40;7.00;;;;;;;10.60;25.55;101000.13;432523;1270;99025;-41
2022/03/20 13:35:40;;;;;;;;;;;;;;;10.65;25.13;100984.02;432651;1270;108685;-42
2022/03/20 13:45:48;;;;;;;12.70;7.00;;;;;;;10.56;25.11;100981.64;432668;1270;99360;-42
2022/03/20 13:55:56;;;;;;;12.50;7.10;;;;;;;10.63;25.21;100975.46;432728;1270;112427;-41
2022/03/20 14:06:02;;;;;;;11.80;7.10;;;;;;;10.65;24.89;100973.06;432328;1270;108750;-41
2022/03/20 14:16:13;;;;;;;9.70;6.60;;;;;;;10.44;24.63;100966.85;432549;1270;99257;-42
2022/03/20 14:26:21;;;;;;;12.80;7.90;;;;;;;10.32;24.41;100960.18;432546;1270;108914;-41
2022/03/20 14:47:02;;;;;;;12.80;8.10;;;;;;;10.13;24.22;100957.41;432563;1270;112934;-42
2022/03/20 14:57:10;;;;;;;11.60;7.00;;;;;;;10.00;24.42;100951.95;432501;1269;108723;-43
2022/03/20 15:07:18;;;;;;;15.60;9.30;;;;;;;9.73;24.50;100947.65;432455;1271;99313;-40
2022/03/20 15:17:25;;;;;;;12.20;6.40;;;;;;;9.69;25.06;100946.77;432387;1271;109066;-40
2022/03/20 15:27:33;;;;;;;10.20;6.50;;;;;;;9.61;24.53;100940.89;432634;1271;98071;-41
2022/03/20 15:47:52;;;;;;;10.40;6.30;;;;;;;9.32;24.83;100937.73;432572;1271;108793;-40
2022/03/20 15:58:00;;;;;;;9.90;6.00;;;;;;;9.12;25.08;100937.73;432640;1271;99282;-43
2022/03/20 16:08:06;;;;;;;13.30;7.10;;;;;;;8.88;24.93;100929.02;432613;1270;112473;-42
2022/03/20 16:18:14;;;;;;;12.70;6.90;;;;;;;8.64;25.07;100930.09;432713;1268;109273;-39
2022/03/20 16:28:30;;;;;;;11.10;7.00;;;;;;;8.36;24.68;100931.50;432595;1270;99126;-40
2022/03/20 16:38:38;;;;;;;19.60;12.50;;;;;;;8.12;24.71;100933.88;432606;1270;112680;-40
2022/03/20 16:48:45;;;;;;;18.50;10.10;;;;;;;7.79;25.14;100926.33;432407;1273;108814;-41
2022/03/20 16:58:54;;;;;;;22.00;12.20;;;;;;;7.41;25.39;100932.11;432626;1271;99279;-41
2022/03/20 17:19:07;;;;;;;30.50;15.90;;;;;;;6.69;26.22;100933.45;432741;1270;112644;-40
2022/03/20 17:29:15;;;;;;;35.30;16.80;;;;;;;6.40;26.32;100934.29;432542;1270;109060;-42
2022/03/20 17:49:28;;;;;;;56.60;21.50;;;;;;;5.60;27.33;100936.90;432630;1271;112437;-41
2022/03/20 17:59:38;;;;;;;91.80;35.20;;;;;;;5.07;27.80;100934.72;432506;1271;109354;-42
2022/03/20 18:09:46;;;;;;;90.30;38.10;;;;;;;4.54;28.54;100934.40;432613;1271;99269;-42
2022/03/20 18:19:53;;;;;;;78.30;37.20;;;;;;;4.12;29.04;100941.05;432646;1271;111975;-41
2022/03/20 18:30:00;;;;;;;129.40;48.20;;;;;;;3.78;29.60;100947.98;432391;1271;108745;-43
2022/03/20 18:40:11;;;;;;;203.80;80.50;;;;;;;3.57;30.06;100958.23;432561;1271;99233;-41
2022/03/20 18:50:19;;;;;;;98.60;42.70;;;;;;;3.53;30.32;100962.59;432627;1271;112452;-41
2022/03/20 19:00:26;;;;;;;128.80;43.00;;;;;;;3.44;30.62;100963.16;432541;1270;108329;-41
2022/03/20 19:10:34;;;;;;;93.00;39.20;;;;;;;3.36;30.96;100961.91;432571;1271;99962;-41
2022/03/20 19:20:41;;;;;;;93.90;39.00;;;;;;;3.17;31.52;100962.77;432433;1271;108563;-43
2022/03/20 19:30:50;;;;;;;58.00;26.00;;;;;;;2.95;31.67;100969.44;432491;1271;99252;-43
2022/03/20 19:40:57;;;;;;;72.90;30.00;;;;;;;3.03;31.70;100968.98;432334;1271;112425;-40
2022/03/20 19:51:08;;;;;;;57.30;23.00;;;;;;;2.93;31.97;100972.63;432314;1271;109184;-41
2022/03/20 20:01:15;;;;;;;55.40;23.20;;;;;;;2.68;32.42;100970.39;432495;1271;98077;-40
2022/03/20 20:11:21;;;;;;;57.20;23.80;;;;;;;2.34;32.83;100966.64;432456;1271;111841;-41
2022/03/20 20:21:29;;;;;;;101.10;36.30;;;;;;;2.06;33.42;100967.79;432383;1271;109216;-42
2022/03/20 20:31:37;;;;;;;93.70;33.10;;;;;;;1.72;33.70;100974.39;432458;1271;98040;-41
2022/03/20 20:41:45;;;;;;;92.90;33.10;;;;;;;1.45;34.28;100974.30;432647;1271;112579;-40
2022/03/20 20:51:52;;;;;;;73.80;30.80;;;;;;;1.14;34.86;100976.28;432529;1271;108983;-43
2022/03/20 21:12:08;;;;;;;72.30;26.10;;;;;;;1.09;35.15;100970.87;432115;1271;538564;-42
2022/03/20 21:22:15;;;;;;;50.30;22.70;;;;;;;1.39;35.19;100961.94;432536;1271;108690;-40
2022/03/20 21:32:25;;;;;;;66.00;23.00;;;;;;;1.57;35.39;100958.84;432650;1271;99289;-40
2022/03/20 21:42:32;;;;;;;72.20;26.60;;;;;;;1.64;35.12;100955.50;432333;1271;112554;-41
2022/03/20 21:52:41;;;;;;;59.70;24.80;;;;;;;1.61;35.34;100958.73;432516;1271;108169;-43
2022/03/20 22:02:50;;;;;;;55.10;23.30;;;;;;;1.50;35.63;100966.77;432705;1271;99247;-42
2022/03/20 22:23:06;;;;;;;59.50;22.10;;;;;;;1.08;36.33;100971.66;432518;1270;108605;-40
2022/03/20 22:43:20;;;;;;;51.00;22.90;;;;;;;1.01;36.43;100959.00;432694;1271;112346;-41
2022/03/20 22:53:27;;;;;;;60.30;27.40;;;;;;;0.96;36.79;100956.45;432378;1271;110064;-41
2022/03/20 23:03:35;;;;;;;101.40;31.50;;;;;;;0.82;37.11;100954.84;432696;1271;99276;-41
2022/03/20 23:13:42;;;;;;;70.70;26.10;;;;;;;0.59;37.25;100952.96;432632;1271;112451;-43
2022/03/20 23:33:56;;;;;;;66.10;28.70;;;;;;;0.15;38.47;100957.47;432568;1271;98447;-42
2022/03/20 23:44:04;;;;;;;58.30;28.60;;;;;;;-0.13;38.87;100955.05;432641;1270;112900;-41
2022/03/20 23:54:11;;;;;;;70.40;30.80;;;;;;;-0.41;39.46;100955.91;432649;1270;108972;-41
